createdAt,value
2023-12-03T00:00:12.106Z,83.12
2023-12-03T00:02:39.372Z,82.72
2023-12-03T00:05:08.046Z,82.25
2023-12-03T00:07:35.655Z,82.64
2023-12-03T00:10:02.846Z,82.29
2023-12-03T00:12:29.932Z,82.69
2023-12-03T00:14:56.811Z,82.82
2023-12-03T00:17:23.633Z,82.38
2023-12-03T00:19:50.485Z,82.75
2023-12-03T00:22:17.396Z,82.36
2023-12-03T00:24:44.401Z,84.85
2023-12-03T00:27:11.349Z,85.33
2023-12-03T00:29:38.249Z,85.52
2023-12-03T00:32:05.480Z,88.37
2023-12-03T00:34:32.402Z,87.05
2023-12-03T00:36:59.335Z,87.06
2023-12-03T00:39:26.276Z,86.86
2023-12-03T00:41:53.216Z,89.08
2023-12-03T00:44:20.052Z,90.63
2023-12-03T00:46:46.947Z,88.56
2023-12-03T00:49:14.986Z,88.59
2023-12-03T00:51:41.928Z,88.25
2023-12-03T00:54:08.960Z,88.68
2023-12-03T00:56:35.919Z,90.61
2023-12-03T00:59:02.733Z,95.79
2023-12-03T01:01:29.641Z,95.68
2023-12-03T01:03:56.514Z,93.92
2023-12-03T01:06:23.406Z,93.03
2023-12-03T01:08:50.834Z,95.15
2023-12-03T01:11:34.439Z,95.74
2023-12-03T01:14:03.715Z,94.37
2023-12-03T01:16:30.599Z,93.06
2023-12-03T01:18:57.970Z,92.95
2023-12-03T01:21:25.092Z,94.91
2023-12-03T01:23:52.088Z,93.74
2023-12-03T01:26:18.925Z,94.57
2023-12-03T01:28:45.734Z,93.21
2023-12-03T01:31:12.607Z,92.25
2023-12-03T01:33:39.664Z,93.66
2023-12-03T01:36:07.195Z,92.99
2023-12-03T01:38:34.218Z,91.86
2023-12-03T01:41:01.126Z,91.47
2023-12-03T01:43:28.027Z,91.01
2023-12-03T01:45:55.432Z,89.72
2023-12-03T01:48:22.477Z,88.22
2023-12-03T01:50:50.071Z,89.23
2023-12-03T01:53:19.547Z,88.35
2023-12-03T01:55:46.523Z,88.51
2023-12-03T01:58:13.669Z,87.74
2023-12-03T02:00:40.742Z,87.44
2023-12-03T02:03:07.723Z,87.41
2023-12-03T02:05:34.659Z,89.68
2023-12-03T02:08:01.680Z,91.43
2023-12-03T02:10:28.675Z,90.16
2023-12-03T02:12:56.781Z,89.56
2023-12-03T02:15:23.725Z,89.52
2023-12-03T02:17:51.852Z,89.81
2023-12-03T02:20:18.690Z,91.44
2023-12-03T02:23:03.820Z,92.50
2023-12-03T02:25:30.794Z,91.17
2023-12-03T02:27:57.626Z,90.80
2023-12-03T02:30:24.633Z,90.70
2023-12-03T02:32:51.596Z,91.75
2023-12-03T02:35:18.547Z,90.92
2023-12-03T02:37:45.466Z,89.95
2023-12-03T02:40:12.330Z,90.42
2023-12-03T02:42:39.393Z,90.41
2023-12-03T02:45:07.003Z,89.68
2023-12-03T02:47:34.072Z,89.45
2023-12-03T02:50:01.907Z,88.53
2023-12-03T02:52:28.830Z,89.52
2023-12-03T02:54:55.736Z,93.52
2023-12-03T02:57:22.812Z,93.73
2023-12-03T02:59:49.777Z,92.13
2023-12-03T03:02:16.663Z,90.79
2023-12-03T03:04:43.550Z,90.71
2023-12-03T03:07:10.537Z,89.63
2023-12-03T03:09:37.409Z,88.98
2023-12-03T03:12:04.457Z,89.63
2023-12-03T03:14:31.412Z,90.01
2023-12-03T03:16:58.356Z,89.91
2023-12-03T03:19:25.951Z,89.48
2023-12-03T03:21:52.932Z,89.00
2023-12-03T03:24:19.806Z,88.44
2023-12-03T03:26:46.612Z,88.29
2023-12-03T03:29:13.501Z,88.25
2023-12-03T03:31:40.525Z,88.58
2023-12-03T03:34:09.115Z,88.11
2023-12-03T03:36:36.146Z,89.67
2023-12-03T03:39:03.238Z,89.67
2023-12-03T03:41:30.084Z,88.89
2023-12-03T03:43:57.050Z,88.32
2023-12-03T03:46:23.846Z,88.19
2023-12-03T03:48:50.648Z,88.15
2023-12-03T03:51:17.540Z,88.89
2023-12-03T03:53:44.432Z,89.78
2023-12-03T03:56:12.196Z,91.64
2023-12-03T03:58:39.435Z,90.53
2023-12-03T04:01:08.367Z,89.81
2023-12-03T04:03:35.768Z,89.62
2023-12-03T04:06:04.991Z,88.88
2023-12-03T04:08:32.073Z,88.76
2023-12-03T04:11:02.293Z,89.24
2023-12-03T04:13:29.176Z,88.85
2023-12-03T04:15:56.120Z,89.02
2023-12-03T04:18:23.022Z,88.76
2023-12-03T04:20:50.024Z,89.06
2023-12-03T04:23:17.038Z,89.35
2023-12-03T04:25:43.909Z,88.83
2023-12-03T04:28:10.885Z,89.39
2023-12-03T04:30:37.794Z,89.26
2023-12-03T04:33:04.682Z,88.43
2023-12-03T04:35:31.682Z,89.22
2023-12-03T04:37:58.497Z,89.55
2023-12-03T04:40:25.354Z,88.96
2023-12-03T04:42:52.519Z,89.20
2023-12-03T04:45:19.518Z,88.32
2023-12-03T04:47:46.597Z,88.21
2023-12-03T04:50:13.640Z,90.14
2023-12-03T04:52:40.521Z,91.81
2023-12-03T04:55:07.761Z,92.13
2023-12-03T04:57:34.941Z,94.25
2023-12-03T05:00:01.942Z,94.82
2023-12-03T05:02:28.776Z,94.41
2023-12-03T05:04:55.737Z,94.36
2023-12-03T05:07:22.660Z,94.10
2023-12-03T05:09:49.625Z,93.64
2023-12-03T05:12:16.572Z,93.91
2023-12-03T05:14:43.394Z,93.50
2023-12-03T05:17:10.232Z,92.55
2023-12-03T05:19:37.214Z,91.92
2023-12-03T05:22:04.370Z,90.53
2023-12-03T05:24:31.456Z,90.22
2023-12-03T05:26:58.455Z,89.99
2023-12-03T05:29:25.276Z,89.11
2023-12-03T05:31:52.119Z,89.03
2023-12-03T05:34:19.039Z,89.69
2023-12-03T05:36:46.015Z,89.87
2023-12-03T05:39:12.901Z,89.90
2023-12-03T05:41:40.437Z,89.24
2023-12-03T05:44:07.482Z,88.65
2023-12-03T05:46:34.387Z,87.86
2023-12-03T05:49:01.569Z,87.47
2023-12-03T05:51:28.502Z,87.97
2023-12-03T05:53:55.382Z,87.98
2023-12-03T05:56:22.271Z,88.00
2023-12-03T05:58:49.051Z,87.94
2023-12-03T06:01:25.809Z,87.46
2023-12-03T06:03:53.106Z,87.58
2023-12-03T06:06:20.392Z,87.21
2023-12-03T06:08:49.734Z,87.33
2023-12-03T06:11:16.750Z,86.30
2023-12-03T06:13:43.603Z,88.63
2023-12-03T06:16:14.070Z,88.89
2023-12-03T06:18:40.990Z,89.62
2023-12-03T06:21:08.984Z,89.94
2023-12-03T06:23:36.779Z,89.98
2023-12-03T06:26:03.694Z,89.54
2023-12-03T06:28:30.596Z,88.98
2023-12-03T06:30:57.476Z,89.31
2023-12-03T06:33:24.926Z,88.17
2023-12-03T06:35:52.623Z,84.65
2023-12-03T06:38:19.574Z,85.98
2023-12-03T06:40:46.623Z,88.19
2023-12-03T06:43:13.589Z,88.42
2023-12-03T06:45:40.685Z,87.51
2023-12-03T06:48:11.140Z,88.85
2023-12-03T06:50:38.073Z,88.71
2023-12-03T09:48:33.036Z,65.66
2023-12-03T09:51:03.583Z,65.56
2023-12-03T09:53:33.107Z,65.14
2023-12-03T09:56:00.500Z,65.31
2023-12-03T09:58:27.359Z,65.00
2023-12-03T10:00:55.648Z,63.72
2023-12-03T10:03:22.577Z,65.60
2023-12-03T10:05:49.585Z,64.83
2023-12-03T10:08:16.524Z,59.30
2023-12-03T10:10:47.774Z,57.93
2023-12-03T10:13:15.207Z,58.04
2023-12-03T10:15:42.157Z,54.46
2023-12-03T10:18:09.031Z,55.21
2023-12-03T10:20:36.161Z,55.79
2023-12-03T10:23:04.360Z,55.49
2023-12-03T10:25:35.987Z,54.33
2023-12-03T10:28:04.954Z,56.46
2023-12-03T10:31:07.652Z,56.77
2023-12-03T10:33:34.679Z,55.02
2023-12-03T10:36:02.764Z,55.10
2023-12-03T10:38:39.788Z,54.13
2023-12-03T10:41:08.203Z,54.42
2023-12-03T10:43:42.802Z,52.77
2023-12-03T10:54:00.366Z,53.02
2023-12-03T10:56:27.439Z,53.15
2023-12-03T10:58:57.257Z,53.75
2023-12-03T11:01:25.349Z,54.66
2023-12-03T11:04:03.273Z,53.07
2023-12-03T11:06:30.946Z,53.32
2023-12-03T11:08:59.216Z,53.36
2023-12-03T11:11:27.026Z,52.77
2023-12-03T11:13:57.917Z,51.78
2023-12-03T11:16:28.563Z,52.05
2023-12-03T11:19:03.149Z,52.02
2023-12-03T11:21:43.253Z,51.96
2023-12-03T11:24:46.752Z,51.61
2023-12-03T11:27:13.558Z,52.37
2023-12-03T11:29:51.087Z,51.66
2023-12-03T11:32:20.343Z,51.48
2023-12-03T11:35:16.853Z,50.55
2023-12-03T11:37:44.542Z,51.17
2023-12-03T11:40:14.913Z,49.73
2023-12-03T11:42:46.353Z,50.15
2023-12-03T11:45:19.319Z,50.87
2023-12-03T11:48:04.412Z,51.20
2023-12-03T11:50:32.541Z,50.53
2023-12-03T11:52:59.606Z,51.54
2023-12-03T11:55:27.909Z,51.67
2023-12-03T11:57:55.803Z,50.96
2023-12-03T12:00:22.776Z,51.92
2023-12-03T12:02:49.908Z,52.12
2023-12-03T12:05:16.847Z,52.74
2023-12-03T12:07:43.994Z,52.65
2023-12-03T12:10:11.288Z,53.36
2023-12-03T12:12:40.971Z,54.24
2023-12-03T12:15:08.288Z,53.06
2023-12-03T12:17:35.497Z,53.65
2023-12-03T12:20:12.442Z,53.59
2023-12-03T12:22:43.199Z,53.42
2023-12-03T12:25:12.803Z,53.74
2023-12-03T12:27:42.528Z,54.79
2023-12-03T12:30:21.907Z,54.81
2023-12-03T12:32:58.339Z,56.04
2023-12-03T12:35:27.131Z,56.37
2023-12-03T12:38:05.308Z,56.63
2023-12-03T12:40:34.619Z,55.96
2023-12-03T12:43:11.938Z,55.41
2023-12-03T13:42:40.746Z,60.40
2023-12-03T13:45:07.954Z,60.17
2023-12-03T13:47:35.553Z,60.37
2023-12-03T13:50:02.835Z,60.20
2023-12-03T13:52:33.287Z,60.65
2023-12-03T13:55:01.002Z,60.89
2023-12-03T13:57:28.883Z,60.97
2023-12-03T13:59:56.043Z,61.13
2023-12-03T14:02:32.231Z,60.97
2023-12-03T14:33:43.325Z,65.12
2023-12-03T14:36:10.858Z,65.00
2023-12-03T14:38:37.675Z,64.95
2023-12-03T14:41:07.853Z,64.77
2023-12-03T14:43:34.700Z,65.32
2023-12-03T14:46:01.564Z,65.06
2023-12-03T14:48:28.507Z,64.99
2023-12-03T14:50:55.410Z,64.79
2023-12-03T14:53:22.239Z,64.46
2023-12-03T14:55:49.149Z,64.75
2023-12-03T14:58:16.152Z,64.53
2023-12-03T15:00:44.895Z,64.32
2023-12-03T15:03:11.805Z,64.22
2023-12-03T15:05:40.102Z,64.38
2023-12-03T15:08:06.891Z,64.39
2023-12-03T15:10:33.741Z,64.73
2023-12-03T15:13:00.800Z,64.60
2023-12-03T15:15:27.672Z,64.58
2023-12-03T15:17:54.670Z,64.66
2023-12-03T15:20:21.549Z,64.93
2023-12-03T15:22:48.429Z,64.84
2023-12-03T15:25:15.732Z,64.98
2023-12-03T15:27:42.640Z,64.93
2023-12-03T15:30:10.254Z,64.68
2023-12-03T15:32:37.220Z,66.09
2023-12-03T15:35:04.335Z,65.86
2023-12-03T15:37:31.210Z,65.89
2023-12-03T15:39:59.107Z,65.83
2023-12-03T15:42:28.640Z,65.88
2023-12-03T15:44:56.618Z,65.84
2023-12-03T15:47:23.706Z,66.16
2023-12-03T15:49:50.740Z,66.36
2023-12-03T15:52:17.701Z,66.29
2023-12-03T15:54:44.718Z,66.31
2023-12-03T15:57:14.597Z,66.21
2023-12-03T15:59:41.848Z,66.42
2023-12-03T16:02:08.956Z,66.53
2023-12-03T16:04:35.914Z,66.31
2023-12-03T16:07:03.130Z,66.57
2023-12-03T16:09:30.122Z,66.65
2023-12-03T16:11:57.749Z,66.63
2023-12-03T16:14:24.638Z,67.25
2023-12-03T16:16:53.414Z,66.97
2023-12-03T16:19:21.412Z,66.89
2023-12-03T16:21:48.332Z,67.19
2023-12-03T16:24:15.552Z,67.18
2023-12-03T16:26:44.846Z,67.20
2023-12-03T16:29:11.725Z,67.57
2023-12-03T16:31:38.607Z,67.08
2023-12-03T16:34:05.800Z,67.59
2023-12-03T16:36:32.771Z,67.12
2023-12-03T16:39:00.018Z,66.93
2023-12-03T16:41:27.057Z,67.26
2023-12-03T16:43:54.028Z,67.22
2023-12-03T16:46:20.911Z,67.10
2023-12-03T16:48:47.910Z,67.42
2023-12-03T16:51:14.804Z,67.25
2023-12-03T16:53:42.141Z,67.28
2023-12-03T16:56:09.221Z,67.36
2023-12-03T16:58:38.298Z,67.62
2023-12-03T17:01:08.749Z,67.42
2023-12-03T17:03:35.682Z,67.71
2023-12-03T17:06:02.692Z,67.76
2023-12-03T17:08:29.743Z,67.74
2023-12-03T17:10:57.769Z,68.06
2023-12-03T17:13:25.133Z,68.49
2023-12-03T17:15:52.790Z,68.30
2023-12-03T17:18:19.929Z,68.90
2023-12-03T17:20:46.785Z,70.29
2023-12-03T17:23:13.702Z,71.67
2023-12-03T17:25:40.607Z,71.69
2023-12-03T17:28:07.567Z,72.38
2023-12-03T17:30:34.622Z,71.64
2023-12-03T17:33:01.658Z,72.03
2023-12-03T17:35:28.712Z,72.67
2023-12-03T17:37:56.217Z,71.62
2023-12-03T17:40:23.183Z,71.73
2023-12-03T17:42:50.109Z,72.67
2023-12-03T17:45:17.131Z,74.61
2023-12-03T17:47:44.035Z,75.09
2023-12-03T17:50:11.318Z,73.90
2023-12-03T17:52:38.608Z,73.97
2023-12-03T17:55:06.247Z,73.69
2023-12-03T17:57:33.114Z,73.16
2023-12-03T18:00:00.227Z,72.90
2023-12-03T18:02:27.132Z,72.22
2023-12-03T18:04:57.093Z,72.47
2023-12-03T18:07:24.851Z,72.66
2023-12-03T18:09:52.149Z,72.71
2023-12-03T18:12:19.107Z,72.90
2023-12-03T18:14:46.820Z,72.19
2023-12-03T18:17:14.288Z,72.85
2023-12-03T18:19:41.207Z,72.73
2023-12-03T18:22:08.273Z,73.08
2023-12-03T18:24:35.389Z,72.72
2023-12-03T18:27:02.247Z,72.90
2023-12-03T18:29:29.208Z,73.34
2023-12-03T18:31:56.389Z,73.51
2023-12-03T18:34:23.328Z,73.24
2023-12-03T18:36:50.527Z,73.09
2023-12-03T18:39:17.636Z,73.14
2023-12-03T18:41:44.638Z,73.45
2023-12-03T18:44:11.793Z,73.78
2023-12-03T18:46:38.644Z,73.51
2023-12-03T18:49:05.559Z,73.64
2023-12-03T18:51:33.370Z,73.66
2023-12-03T18:54:00.826Z,73.35
2023-12-03T18:56:27.699Z,73.06
2023-12-03T18:58:54.702Z,73.10
2023-12-03T19:01:21.620Z,73.40
2023-12-03T19:03:48.677Z,73.27
2023-12-03T19:06:15.700Z,73.18
2023-12-03T19:08:42.730Z,74.00
2023-12-03T19:11:09.753Z,73.71
2023-12-03T19:13:37.100Z,73.96
2023-12-03T19:16:04.353Z,74.15
2023-12-03T19:18:31.414Z,73.73
2023-12-03T19:20:58.658Z,73.54
2023-12-03T19:23:25.437Z,73.57
2023-12-03T19:25:52.444Z,74.25
2023-12-03T19:28:19.279Z,74.35
2023-12-03T19:30:46.122Z,74.31
2023-12-03T19:33:12.959Z,74.55
2023-12-03T19:35:39.841Z,74.23
2023-12-03T19:38:06.747Z,74.92
2023-12-03T19:40:33.578Z,74.21
2023-12-03T19:43:01.412Z,74.32
2023-12-03T19:45:28.365Z,75.08
2023-12-03T19:47:55.246Z,74.67
2023-12-03T19:50:22.302Z,74.98
2023-12-03T19:52:50.439Z,74.80
2023-12-03T19:55:17.316Z,75.30
2023-12-03T19:57:44.258Z,76.01
2023-12-03T20:00:14.530Z,74.83
2023-12-03T20:02:41.349Z,75.61
2023-12-03T20:05:09.549Z,75.27
2023-12-03T20:07:36.572Z,75.29
2023-12-03T20:10:03.793Z,75.66
2023-12-03T20:12:33.928Z,75.54
2023-12-03T20:15:00.793Z,75.49
2023-12-03T20:17:31.088Z,75.35
2023-12-03T20:19:58.273Z,74.85
2023-12-03T20:22:25.334Z,74.77
2023-12-03T20:24:52.384Z,74.48
2023-12-03T20:27:19.246Z,74.44
2023-12-03T20:29:46.218Z,75.05
2023-12-03T20:32:13.238Z,75.29
2023-12-03T20:34:40.176Z,75.06
2023-12-03T20:37:07.008Z,75.50
2023-12-03T20:39:34.296Z,75.15
2023-12-03T20:42:01.232Z,75.70
2023-12-03T20:44:28.215Z,75.41
2023-12-03T20:46:55.206Z,75.23
2023-12-03T20:49:22.793Z,75.24
2023-12-03T20:51:49.740Z,75.65
2023-12-03T20:54:16.744Z,75.48
2023-12-03T20:56:43.604Z,76.56
2023-12-03T20:59:10.412Z,76.85
2023-12-03T21:01:37.317Z,77.40
2023-12-03T21:04:04.728Z,77.32
2023-12-03T21:06:31.680Z,77.08
2023-12-03T21:08:59.669Z,77.47
2023-12-03T21:11:26.582Z,78.34
2023-12-03T21:13:53.506Z,78.28
2023-12-03T21:16:20.375Z,80.61
2023-12-03T21:18:47.259Z,80.52
2023-12-03T21:21:14.203Z,81.43
2023-12-03T21:23:41.351Z,79.71
2023-12-03T21:26:08.450Z,80.42
2023-12-03T21:28:35.309Z,79.73
2023-12-03T21:31:02.531Z,79.70
2023-12-03T21:33:29.586Z,80.98
2023-12-03T21:35:57.038Z,80.79
2023-12-03T21:38:24.041Z,80.58
2023-12-03T21:40:50.986Z,80.28
2023-12-03T21:43:17.910Z,79.85
2023-12-03T21:45:44.921Z,79.82
2023-12-03T21:48:11.870Z,79.26
2023-12-03T21:50:38.786Z,79.55
2023-12-03T21:53:05.750Z,79.48
2023-12-03T21:55:32.652Z,79.27
2023-12-03T21:57:59.670Z,79.17
2023-12-03T22:00:26.569Z,78.61
2023-12-03T22:02:54.441Z,79.07
2023-12-03T22:05:21.332Z,79.23
2023-12-03T22:07:48.288Z,80.05
2023-12-03T22:10:15.183Z,79.27
2023-12-03T22:12:42.132Z,78.99
2023-12-03T22:15:09.562Z,79.21
2023-12-03T22:17:36.422Z,79.43
2023-12-03T22:20:03.564Z,81.18
2023-12-03T22:22:30.588Z,83.63
2023-12-03T22:24:57.826Z,84.59
2023-12-03T22:27:24.773Z,83.99
2023-12-03T22:29:57.055Z,84.05
2023-12-03T22:32:29.891Z,83.60
2023-12-03T22:34:58.187Z,82.59
2023-12-03T22:37:25.088Z,83.78
2023-12-03T22:39:52.026Z,82.16
2023-12-03T22:42:18.977Z,82.26
2023-12-03T22:44:45.868Z,83.17
2023-12-03T22:47:12.727Z,82.69
2023-12-03T22:49:39.637Z,81.70
2023-12-03T22:52:06.752Z,81.49
2023-12-03T22:54:33.644Z,80.94
2023-12-03T22:57:00.900Z,80.09
2023-12-03T22:59:27.753Z,80.43
2023-12-03T23:01:54.679Z,82.18
2023-12-03T23:04:21.638Z,81.54
2023-12-03T23:06:48.528Z,81.64
2023-12-03T23:09:15.369Z,80.87
2023-12-03T23:11:42.308Z,80.67
2023-12-03T23:14:09.147Z,80.82
2023-12-03T23:16:43.037Z,80.52
2023-12-03T23:19:10.770Z,80.79
2023-12-03T23:21:38.428Z,80.51
2023-12-03T23:24:07.530Z,81.21
2023-12-03T23:26:34.807Z,80.68
2023-12-03T23:29:02.121Z,80.69
2023-12-03T23:31:29.125Z,80.58
2023-12-03T23:33:56.062Z,83.28
2023-12-03T23:36:22.917Z,83.81
2023-12-03T23:38:49.873Z,85.46
2023-12-03T23:41:17.134Z,85.98
2023-12-03T23:43:44.114Z,86.97
2023-12-03T23:46:11.110Z,84.72
2023-12-03T23:48:39.354Z,84.23
2023-12-03T23:51:06.431Z,83.18
2023-12-03T23:53:33.509Z,83.07
2023-12-03T23:56:00.325Z,82.54
2023-12-03T23:58:27.134Z,82.04
